createdAt,value
2018-07-04T00:00:43.893Z,18.27
2018-07-04T00:03:23.956Z,18.29
2018-07-04T00:06:04.216Z,18.30
2018-07-04T00:08:44.328Z,18.28
2018-07-04T00:11:24.559Z,18.28
2018-07-04T00:14:04.638Z,18.26
2018-07-04T00:16:44.994Z,18.27
2018-07-04T00:19:25.025Z,18.26
2018-07-04T00:22:05.379Z,18.28
2018-07-04T00:24:45.432Z,18.25
2018-07-04T00:27:25.605Z,18.23
2018-07-04T00:30:05.744Z,18.23
2018-07-04T00:32:46.093Z,18.21
2018-07-04T00:35:26.186Z,18.21
2018-07-04T00:38:06.454Z,18.21
2018-07-04T00:40:46.679Z,18.23
2018-07-04T00:43:26.723Z,18.23
2018-07-04T00:46:06.961Z,18.24
2018-07-04T00:48:47.340Z,18.26
2018-07-04T00:51:27.380Z,18.25
2018-07-04T00:54:07.571Z,18.25
2018-07-04T00:56:47.872Z,18.25
2018-07-04T00:59:28.000Z,18.23
2018-07-04T01:02:08.210Z,18.21
2018-07-04T01:04:48.453Z,18.19
2018-07-04T01:07:28.589Z,18.16
2018-07-04T01:10:08.848Z,18.12
2018-07-04T01:12:49.056Z,18.07
2018-07-04T01:15:29.459Z,17.96
2018-07-04T01:18:09.720Z,17.83
2018-07-04T01:20:55.216Z,17.80
2018-07-04T01:23:35.284Z,17.78
2018-07-04T01:26:15.480Z,17.76
2018-07-04T01:28:55.645Z,17.74
2018-07-04T01:31:35.820Z,17.70
2018-07-04T01:34:15.908Z,17.68
2018-07-04T01:36:56.052Z,17.67
2018-07-04T01:39:36.186Z,17.64
2018-07-04T01:42:16.422Z,17.58
2018-07-04T01:44:56.721Z,17.54
2018-07-04T01:47:36.704Z,17.50
2018-07-04T01:50:17.066Z,17.46
2018-07-04T01:52:57.222Z,17.38
2018-07-04T01:55:37.446Z,17.36
2018-07-04T01:58:17.636Z,17.36
2018-07-04T02:00:57.866Z,17.37
2018-07-04T02:03:37.956Z,17.32
2018-07-04T02:06:18.150Z,17.29
2018-07-04T02:08:58.196Z,17.26
2018-07-04T02:11:38.298Z,17.23
2018-07-04T02:14:18.354Z,17.22
2018-07-04T02:16:58.473Z,17.22
2018-07-04T02:19:38.712Z,17.19
2018-07-04T02:22:18.964Z,17.15
2018-07-04T02:24:59.014Z,17.09
2018-07-04T02:27:39.238Z,17.05
2018-07-04T02:30:19.412Z,16.98
2018-07-04T02:32:59.432Z,16.94
2018-07-04T02:35:39.554Z,16.91
2018-07-04T02:38:19.691Z,16.87
2018-07-04T02:40:59.980Z,16.85
2018-07-04T02:43:40.227Z,16.82
2018-07-04T02:46:50.988Z,16.78
2018-07-04T02:49:30.972Z,16.70
2018-07-04T02:52:11.016Z,16.65
2018-07-04T02:54:51.086Z,16.62
2018-07-04T02:57:31.426Z,16.62
2018-07-04T03:00:11.662Z,16.60
2018-07-04T03:02:51.817Z,16.61
2018-07-04T03:05:32.054Z,16.61
2018-07-04T03:08:12.194Z,16.61
2018-07-04T03:10:52.238Z,16.60
2018-07-04T03:13:32.522Z,16.56
2018-07-04T03:16:12.626Z,16.55
2018-07-04T03:18:52.694Z,16.56
2018-07-04T03:21:32.962Z,16.56
2018-07-04T03:24:13.010Z,16.53
2018-07-04T03:26:53.354Z,16.50
2018-07-04T03:29:33.452Z,16.46
2018-07-04T03:32:13.753Z,16.44
2018-07-04T03:34:54.614Z,16.41
2018-07-04T03:37:34.817Z,16.41
2018-07-04T03:40:14.927Z,16.43
2018-07-04T03:42:55.025Z,16.46
2018-07-04T03:45:35.147Z,16.51
2018-07-04T03:48:15.439Z,16.57
2018-07-04T03:50:55.723Z,16.58
2018-07-04T03:53:35.918Z,16.58
2018-07-04T03:56:16.005Z,16.50
2018-07-04T03:58:56.257Z,16.49
2018-07-04T04:01:36.380Z,16.51
2018-07-04T04:04:16.642Z,16.56
2018-07-04T04:06:56.844Z,16.54
2018-07-04T04:09:37.081Z,16.51
2018-07-04T04:12:17.160Z,16.53
2018-07-04T04:14:57.335Z,16.58
2018-07-04T04:17:37.439Z,16.61
2018-07-04T04:20:17.671Z,16.56
2018-07-04T04:22:57.797Z,16.56
2018-07-04T04:25:37.958Z,16.49
2018-07-04T04:28:18.177Z,16.44
2018-07-04T04:30:58.265Z,16.39
2018-07-04T04:33:38.555Z,16.42
2018-07-04T04:36:18.747Z,16.47
2018-07-04T04:38:58.859Z,16.41
2018-07-04T04:41:38.963Z,16.37
2018-07-04T04:44:19.154Z,16.42
2018-07-04T04:46:59.579Z,16.51
2018-07-04T04:49:39.728Z,16.64
2018-07-04T04:52:20.215Z,16.72
2018-07-04T04:55:00.275Z,16.78
2018-07-04T04:57:40.774Z,16.90
2018-07-04T05:00:20.945Z,17.03
2018-07-04T05:03:01.087Z,17.12
2018-07-04T05:05:41.354Z,17.12
2018-07-04T05:08:21.599Z,17.19
2018-07-04T05:11:01.944Z,17.29
2018-07-04T05:13:42.313Z,17.38
2018-07-04T05:16:22.633Z,17.48
2018-07-04T05:19:02.931Z,17.58
2018-07-04T05:21:43.231Z,17.69
2018-07-04T05:24:23.510Z,17.79
2018-07-04T05:27:03.539Z,17.86
2018-07-04T05:29:43.673Z,17.90
2018-07-04T05:32:23.914Z,17.97
2018-07-04T05:35:04.113Z,18.00
2018-07-04T05:37:44.150Z,18.00
2018-07-04T05:40:24.413Z,18.04
2018-07-04T05:43:04.595Z,18.11
2018-07-04T05:45:44.903Z,18.22
2018-07-04T05:48:26.004Z,18.35
2018-07-04T05:51:06.289Z,18.47
2018-07-04T05:53:46.331Z,18.54
2018-07-04T05:56:26.565Z,18.62
2018-07-04T05:59:06.830Z,18.72
2018-07-04T06:01:46.953Z,18.82
2018-07-04T06:04:27.096Z,18.90
2018-07-04T06:07:07.244Z,18.90
2018-07-04T06:09:47.296Z,19.06
2018-07-04T06:12:27.584Z,19.16
2018-07-04T06:15:07.727Z,19.27
2018-07-04T06:17:48.820Z,19.38
2018-07-04T06:20:28.954Z,19.55
2018-07-04T06:23:09.251Z,19.72
2018-07-04T06:25:49.368Z,19.93
2018-07-04T06:28:29.659Z,20.10
2018-07-04T06:31:10.034Z,20.27
2018-07-04T06:33:51.235Z,20.41
2018-07-04T06:36:31.247Z,20.54
2018-07-04T06:38:59.131Z,20.70
2018-07-04T06:41:27.012Z,20.85
2018-07-04T06:43:54.886Z,20.94
2018-07-04T06:46:22.773Z,21.02
2018-07-04T06:48:50.718Z,21.10
2018-07-04T06:51:18.561Z,21.11
2018-07-04T06:53:46.559Z,21.16
2018-07-04T06:56:14.460Z,21.18
2018-07-04T06:58:42.350Z,21.18
2018-07-04T07:01:10.240Z,21.26
2018-07-04T07:03:50.507Z,21.34
2018-07-04T07:06:30.802Z,21.43
2018-07-04T07:09:11.045Z,21.45
2018-07-04T07:11:51.284Z,21.50
2018-07-04T07:14:31.554Z,21.58
2018-07-04T07:17:11.764Z,21.67
2018-07-04T07:19:52.110Z,21.73
2018-07-04T07:22:32.298Z,21.82
2018-07-04T07:25:12.512Z,21.81
2018-07-04T07:27:52.714Z,21.86
2018-07-04T07:30:32.880Z,22.01
2018-07-04T07:33:13.373Z,22.13
2018-07-04T07:35:53.506Z,22.31
2018-07-04T07:38:33.731Z,22.50
2018-07-04T07:41:13.857Z,22.63
2018-07-04T07:43:54.144Z,22.83
2018-07-04T07:46:34.501Z,23.03
2018-07-04T07:49:14.736Z,23.24
2018-07-04T07:51:54.852Z,23.38
2018-07-04T07:54:35.014Z,23.47
2018-07-04T07:57:15.176Z,23.50
2018-07-04T07:59:55.229Z,23.50
2018-07-04T08:02:35.514Z,23.55
2018-07-04T08:05:15.662Z,23.63
2018-07-04T08:07:55.720Z,23.70
2018-07-04T08:10:36.011Z,23.75
2018-07-04T08:13:16.270Z,23.72
2018-07-04T08:15:56.363Z,23.82
2018-07-04T08:18:36.470Z,23.97
2018-07-04T08:21:16.581Z,24.11
2018-07-04T08:23:56.802Z,24.17
2018-07-04T08:26:36.956Z,24.35
2018-07-04T08:29:17.062Z,24.58
2018-07-04T08:31:57.395Z,24.63
2018-07-04T08:34:37.504Z,24.66
2018-07-04T08:37:17.797Z,24.75
2018-07-04T08:39:57.802Z,24.87
2018-07-04T08:42:38.096Z,24.74
2018-07-04T08:45:18.340Z,24.78
2018-07-04T08:47:58.618Z,24.89
2018-07-04T08:50:38.939Z,24.92
2018-07-04T08:53:19.177Z,24.94
2018-07-04T08:55:59.352Z,24.84
2018-07-04T08:58:39.692Z,24.71
2018-07-04T09:01:19.841Z,24.61
2018-07-04T09:04:00.225Z,24.52
2018-07-04T09:06:40.363Z,24.53
2018-07-04T09:09:20.563Z,24.49
2018-07-04T09:12:00.742Z,24.47
2018-07-04T09:14:41.222Z,24.58
2018-07-04T09:17:21.414Z,24.66
2018-07-04T09:20:01.729Z,24.77
2018-07-04T09:22:41.745Z,24.84
2018-07-04T09:25:22.007Z,24.96
2018-07-04T09:28:02.288Z,25.02
2018-07-04T09:30:42.495Z,25.02
2018-07-04T09:33:22.717Z,25.08
2018-07-04T09:36:02.955Z,25.07
2018-07-04T09:38:43.255Z,25.23
2018-07-04T09:41:24.411Z,25.38
2018-07-04T09:44:04.669Z,25.36
2018-07-04T09:46:44.748Z,25.33
2018-07-04T09:49:25.112Z,25.42
2018-07-04T09:52:05.375Z,25.53
2018-07-04T09:54:45.605Z,25.72
2018-07-04T09:57:25.824Z,25.75
2018-07-04T10:00:06.030Z,25.79
2018-07-04T10:02:46.267Z,26.06
2018-07-04T10:05:26.452Z,26.22
2018-07-04T10:08:06.753Z,26.12
2018-07-04T10:10:46.947Z,26.19
2018-07-04T10:13:27.173Z,26.32
2018-07-04T10:16:07.464Z,26.51
2018-07-04T10:18:47.647Z,26.67
2018-07-04T10:21:27.994Z,26.94
2018-07-04T10:24:08.317Z,27.06
2018-07-04T10:26:48.617Z,27.18
2018-07-04T10:29:29.345Z,27.06
2018-07-04T10:32:10.830Z,26.92
2018-07-04T10:34:51.137Z,26.81
2018-07-04T10:37:31.696Z,26.63
2018-07-04T10:40:12.947Z,26.55
2018-07-04T10:42:53.162Z,26.56
2018-07-04T10:45:33.670Z,26.80
2018-07-04T10:48:13.989Z,27.09
2018-07-04T10:50:54.376Z,27.25
2018-07-04T10:53:34.583Z,27.35
2018-07-04T10:56:15.611Z,27.18
2018-07-04T10:58:55.903Z,27.02
2018-07-04T11:01:36.303Z,26.96
2018-07-04T11:04:16.587Z,26.92
2018-07-04T11:06:56.980Z,26.88
2018-07-04T11:09:37.547Z,26.88
2018-07-04T11:12:17.825Z,26.92
2018-07-04T11:14:58.834Z,27.00
2018-07-04T11:17:39.301Z,27.11
2018-07-04T11:20:20.581Z,26.98
2018-07-04T11:23:00.750Z,26.94
2018-07-04T11:25:40.897Z,26.86
2018-07-04T11:28:21.334Z,26.86
2018-07-04T11:31:01.608Z,26.76
2018-07-04T11:33:41.817Z,26.66
2018-07-04T11:36:22.119Z,26.65
2018-07-04T11:39:02.591Z,26.63
2018-07-04T11:41:42.729Z,26.55
2018-07-04T11:44:23.083Z,26.38
2018-07-04T11:46:51.053Z,26.31
2018-07-04T11:49:18.985Z,26.29
2018-07-04T11:51:48.745Z,26.27
2018-07-04T11:54:16.713Z,26.28
2018-07-04T11:56:44.943Z,26.28
2018-07-04T11:59:12.831Z,26.31
2018-07-04T12:01:40.822Z,26.36
2018-07-04T12:04:21.241Z,26.47
2018-07-04T12:07:01.348Z,26.56
2018-07-04T12:09:29.854Z,26.89
2018-07-04T12:11:58.059Z,27.16
2018-07-04T12:14:26.185Z,27.46
2018-07-04T12:16:54.087Z,27.64
2018-07-04T12:19:22.146Z,27.58
2018-07-04T12:21:50.074Z,27.40
2018-07-04T12:24:18.061Z,27.12
2018-07-04T12:26:46.074Z,26.97
2018-07-04T12:29:13.857Z,26.72
2018-07-04T12:31:47.315Z,26.45
2018-07-04T12:34:20.774Z,26.21
2018-07-04T12:36:54.167Z,26.10
2018-07-04T12:42:17.603Z,25.46
2018-07-04T12:44:46.684Z,24.58
2018-07-04T12:47:14.670Z,23.66
2018-07-04T12:49:42.627Z,22.52
2018-07-04T12:52:16.168Z,21.94
2018-07-04T12:54:51.360Z,21.76
2018-07-04T12:57:32.863Z,21.84
2018-07-04T13:00:13.114Z,21.87
2018-07-04T13:02:53.984Z,21.94
2018-07-04T13:05:35.651Z,21.79
2018-07-04T13:08:15.950Z,21.72
2018-07-04T13:11:00.320Z,21.82
2018-07-04T13:13:43.302Z,22.09
2018-07-04T13:16:24.808Z,22.38
2018-07-04T13:19:05.106Z,22.79
2018-07-04T13:21:46.862Z,23.31
2018-07-04T13:24:27.158Z,23.76
2018-07-04T13:27:08.094Z,24.21
2018-07-04T13:29:49.142Z,24.60
2018-07-04T13:32:30.166Z,24.96
2018-07-04T13:35:11.693Z,25.33
2018-07-04T13:37:52.559Z,25.26
2018-07-04T13:40:33.380Z,25.02
2018-07-04T13:43:15.387Z,24.84
2018-07-04T13:45:55.616Z,24.71
2018-07-04T13:48:36.819Z,24.53
2018-07-04T13:51:16.964Z,24.36
2018-07-04T13:53:57.376Z,24.25
2018-07-04T13:56:38.674Z,24.13
2018-07-04T13:59:19.927Z,24.04
2018-07-04T14:02:00.040Z,23.92
2018-07-04T14:04:40.238Z,23.84
2018-07-04T14:07:20.366Z,23.70
2018-07-04T14:10:00.621Z,23.57
2018-07-04T14:12:40.559Z,23.43
2018-07-04T14:15:20.668Z,23.37
2018-07-04T14:18:00.927Z,23.33
2018-07-04T14:20:41.116Z,23.33
2018-07-04T14:23:21.194Z,23.30
2018-07-04T14:26:01.193Z,23.29
2018-07-04T14:28:42.574Z,23.23
2018-07-04T14:31:22.832Z,23.14
2018-07-04T14:34:03.940Z,23.01
2018-07-04T14:36:46.219Z,22.86
2018-07-04T14:39:27.204Z,22.88
2018-07-04T14:42:08.699Z,22.71
2018-07-04T14:44:49.935Z,22.56
2018-07-04T14:47:30.075Z,22.43
2018-07-04T14:50:11.426Z,22.31
2018-07-04T14:52:52.597Z,22.10
2018-07-04T14:55:33.343Z,21.91
2018-07-04T14:58:14.964Z,21.67
2018-07-04T15:00:56.184Z,21.60
2018-07-04T15:03:37.735Z,21.36
2018-07-04T15:06:18.998Z,21.22
2018-07-04T15:09:00.506Z,21.09
2018-07-04T15:11:41.784Z,21.02
2018-07-04T15:14:23.179Z,20.93
2018-07-04T15:17:04.069Z,20.92
2018-07-04T15:19:44.801Z,20.86
2018-07-04T15:22:26.044Z,20.80
2018-07-04T15:25:07.413Z,20.80
2018-07-04T15:27:48.108Z,20.79
2018-07-04T15:30:29.533Z,20.84
2018-07-04T15:33:09.803Z,20.88
2018-07-04T15:35:50.173Z,21.03
2018-07-04T15:38:31.466Z,21.04
2018-07-04T15:41:13.026Z,21.07
2018-07-04T15:43:54.351Z,21.11
2018-07-04T15:46:35.390Z,21.06
2018-07-04T15:49:18.236Z,21.03
2018-07-04T15:51:59.641Z,21.08
2018-07-04T15:54:41.195Z,21.04
2018-07-04T15:57:22.567Z,21.04
2018-07-04T16:00:03.794Z,21.12
2018-07-04T16:02:45.743Z,21.15
2018-07-04T16:05:27.010Z,21.21
2018-07-04T16:11:18.417Z,21.52
2018-07-04T16:13:59.954Z,21.66
2018-07-04T16:16:41.355Z,21.80
2018-07-04T16:19:22.321Z,21.90
2018-07-04T16:22:03.118Z,22.04
2018-07-04T16:24:44.361Z,22.18
2018-07-04T16:27:26.113Z,22.35
2018-07-04T16:30:07.221Z,22.44
2018-07-04T16:32:48.115Z,22.43
2018-07-04T16:35:29.456Z,22.53
2018-07-04T16:38:10.580Z,22.47
2018-07-04T16:40:51.556Z,22.38
2018-07-04T16:43:32.846Z,22.37
2018-07-04T16:46:14.328Z,22.41
2018-07-04T16:48:55.338Z,22.42
2018-07-04T16:51:36.686Z,22.40
2018-07-04T16:54:17.913Z,22.36
2018-07-04T16:56:59.037Z,22.26
2018-07-04T16:59:40.020Z,22.22
2018-07-04T17:02:20.439Z,22.25
2018-07-04T17:05:01.822Z,22.30
2018-07-04T17:07:42.952Z,22.32
2018-07-04T17:10:24.165Z,22.28
2018-07-04T17:13:04.868Z,22.29
2018-07-04T17:15:47.059Z,22.31
2018-07-04T17:18:28.485Z,22.22
2018-07-04T17:21:09.150Z,22.21
2018-07-04T17:23:50.685Z,22.20
2018-07-04T17:26:31.857Z,22.21
2018-07-04T17:29:13.222Z,22.25
2018-07-04T17:31:53.988Z,22.21
2018-07-04T17:34:34.745Z,22.11
2018-07-04T17:37:15.317Z,22.01
2018-07-04T17:39:56.691Z,21.95
2018-07-04T17:42:38.014Z,21.89
2018-07-04T17:45:19.438Z,21.84
2018-07-04T17:48:00.853Z,21.75
2018-07-04T17:50:42.604Z,21.68
2018-07-04T17:53:24.075Z,21.62
2018-07-04T17:56:07.051Z,21.59
2018-07-04T17:58:47.748Z,21.56
2018-07-04T18:01:29.538Z,21.56
2018-07-04T18:04:11.213Z,21.52
2018-07-04T18:06:52.380Z,21.48
2018-07-04T18:09:33.428Z,21.44
2018-07-04T18:12:14.757Z,21.37
2018-07-04T18:14:56.191Z,21.36
2018-07-04T18:17:37.732Z,21.30
2018-07-04T18:20:18.673Z,21.28
2018-07-04T18:23:00.084Z,21.23
2018-07-04T18:25:41.467Z,21.16
2018-07-04T18:28:22.439Z,21.10
2018-07-04T18:31:03.904Z,21.02
2018-07-04T18:33:45.113Z,20.97
2018-07-04T18:36:26.492Z,20.96
2018-07-04T18:39:07.577Z,20.94
2018-07-04T18:41:48.507Z,20.94
2018-07-04T18:44:29.791Z,20.89
2018-07-04T18:47:10.749Z,20.84
2018-07-04T18:49:51.882Z,20.77
2018-07-04T18:52:33.125Z,20.76
2018-07-04T18:55:13.787Z,20.72
2018-07-04T18:57:55.184Z,20.71
2018-07-04T19:00:36.463Z,20.69
2018-07-04T19:03:17.573Z,20.67
2018-07-04T19:05:58.483Z,20.63
2018-07-04T19:08:39.794Z,20.61
2018-07-04T19:11:20.510Z,20.57
2018-07-04T19:14:01.876Z,20.54
2018-07-04T19:16:43.121Z,20.46
2018-07-04T19:19:24.514Z,20.37
2018-07-04T19:22:05.872Z,20.31
2018-07-04T19:24:47.447Z,20.26
2018-07-04T19:27:28.792Z,20.11
2018-07-04T19:30:09.635Z,19.92
2018-07-04T19:32:51.419Z,19.85
2018-07-04T19:35:32.809Z,19.79
2018-07-04T19:38:14.172Z,19.73
2018-07-04T19:40:55.761Z,19.70
2018-07-04T19:43:36.661Z,19.67
2018-07-04T19:46:18.467Z,19.65
2018-07-04T19:48:59.411Z,19.64
2018-07-04T19:51:40.470Z,19.62
2018-07-04T19:54:21.694Z,19.62
2018-07-04T19:57:03.257Z,19.61
2018-07-04T19:59:44.162Z,19.59
2018-07-04T20:02:25.412Z,19.57
2018-07-04T20:05:06.926Z,19.54
2018-07-04T20:07:47.946Z,19.51
2018-07-04T20:10:29.197Z,19.51
2018-07-04T20:13:10.562Z,19.51
2018-07-04T20:15:51.550Z,19.47
2018-07-04T20:18:32.610Z,19.42
2018-07-04T20:21:13.590Z,19.36
2018-07-04T20:23:54.625Z,19.28
2018-07-04T20:26:36.008Z,19.14
2018-07-04T20:29:16.973Z,19.06
2018-07-04T20:31:58.310Z,19.01
2018-07-04T20:34:39.081Z,18.94
2018-07-04T20:37:20.240Z,18.92
2018-07-04T20:40:00.954Z,18.89
2018-07-04T20:42:41.785Z,18.85
2018-07-04T20:45:23.087Z,18.82
2018-07-04T20:48:04.627Z,18.76
2018-07-04T20:50:46.012Z,18.73
2018-07-04T20:53:27.229Z,18.68
2018-07-04T20:56:07.921Z,18.65
2018-07-04T20:58:49.204Z,18.62
2018-07-04T21:01:30.738Z,18.57
2018-07-04T21:04:12.109Z,18.55
2018-07-04T21:06:53.123Z,18.43
2018-07-04T21:09:34.726Z,18.43
2018-07-04T21:12:15.868Z,18.40
2018-07-04T21:14:56.793Z,18.35
2018-07-04T21:17:37.673Z,18.31
2018-07-04T21:20:19.190Z,18.29
2018-07-04T21:23:00.466Z,18.27
2018-07-04T21:25:41.966Z,18.24
2018-07-04T21:28:22.936Z,18.23
2018-07-04T21:31:04.154Z,18.22
2018-07-04T21:33:44.832Z,18.23
2018-07-04T21:36:26.152Z,18.19
2018-07-04T21:39:07.540Z,18.14
2018-07-04T21:41:49.054Z,18.11
2018-07-04T21:44:30.029Z,18.06
2018-07-04T21:47:11.413Z,17.97
2018-07-04T21:49:52.793Z,17.89
2018-07-04T21:52:34.035Z,17.85
2018-07-04T21:55:15.402Z,17.85
2018-07-04T21:57:56.545Z,17.85
2018-07-04T22:00:37.502Z,17.76
2018-07-04T22:03:18.450Z,17.75
2018-07-04T22:05:59.878Z,17.72
2018-07-04T22:08:40.585Z,17.62
2018-07-04T22:11:21.823Z,17.56
2018-07-04T22:14:03.029Z,17.54
2018-07-04T22:16:44.496Z,17.52
2018-07-04T22:19:25.821Z,17.50
2018-07-04T22:22:06.655Z,17.49
2018-07-04T22:24:47.519Z,17.48
2018-07-04T22:27:28.495Z,17.49
2018-07-04T22:30:09.663Z,17.48
2018-07-04T22:32:51.255Z,17.44
2018-07-04T22:35:32.482Z,17.37
2018-07-04T22:38:13.515Z,17.37
2018-07-04T22:40:54.891Z,17.35
2018-07-04T22:43:35.812Z,17.35
2018-07-04T22:46:16.846Z,17.35
2018-07-04T22:48:57.926Z,17.34
2018-07-04T22:51:38.838Z,17.34
2018-07-04T22:54:21.370Z,17.34
2018-07-04T22:57:02.851Z,17.34
2018-07-04T22:59:43.876Z,17.32
2018-07-04T23:02:25.155Z,17.30
2018-07-04T23:05:06.071Z,17.25
2018-07-04T23:07:47.223Z,17.21
2018-07-04T23:10:28.453Z,17.18
2018-07-04T23:13:09.406Z,17.13
2018-07-04T23:15:51.205Z,17.07
2018-07-04T23:18:32.349Z,17.06
2018-07-04T23:21:13.726Z,17.00
2018-07-04T23:23:54.984Z,16.95
2018-07-04T23:26:36.336Z,16.92
2018-07-04T23:29:17.474Z,16.83
2018-07-04T23:31:59.272Z,16.80
2018-07-04T23:34:40.062Z,16.78
2018-07-04T23:37:21.125Z,16.75
2018-07-04T23:40:02.613Z,16.72
2018-07-04T23:42:43.907Z,16.74
2018-07-04T23:45:25.257Z,16.74
2018-07-04T23:48:06.245Z,16.79
2018-07-04T23:50:47.329Z,16.77
2018-07-04T23:53:28.638Z,16.77
2018-07-04T23:56:09.977Z,16.76
2018-07-04T23:58:52.304Z,16.73
